Time;durP1;ratioP1;P1;durP2;ratioP2;P2;SDS_P1;SDS_P2;PMS_P1;PMS_P2;Temp;Humidity;BMP_temperature;BMP_pressure;BME280_temperature;BME280_humidity;BME280_pressure;Samples;Min_cycle;Max_cycle;Signal;HPM_P1;HPM_P2
2023/01/28 00:01:18;;;;;;;10.50;8.07;;;3.20;99.90;;;;;;5036064;28;20197;-44
2023/01/28 00:03:43;;;;;;;10.63;8.30;;;3.20;99.90;;;;;;5035972;28;20201;-48
2023/01/28 00:06:13;;;;;;;11.40;7.93;;;3.20;99.90;;;;;;5035986;28;20683;-46
2023/01/28 00:08:39;;;;;;;10.23;7.93;;;3.20;99.90;;;;;;5018312;28;20180;-44
2023/01/28 00:11:06;;;;;;;10.53;8.67;;;3.20;99.90;;;;;;5018395;28;20161;-46
2023/01/28 00:13:32;;;;;;;11.73;8.83;;;3.20;99.90;;;;;;5035885;28;20196;-46
2023/01/28 00:16:01;;;;;;;12.77;9.43;;;3.20;99.90;;;;;;5035838;28;20242;-44
2023/01/28 00:18:27;;;;;;;12.43;8.87;;;3.20;99.90;;;;;;5036128;28;20231;-45
2023/01/28 00:20:58;;;;;;;12.73;9.07;;;3.20;99.90;;;;;;5035786;28;20665;-46
2023/01/28 00:23:24;;;;;;;11.60;8.77;;;3.10;99.90;;;;;;5035764;28;20209;-45
2023/01/28 00:25:51;;;;;;;13.20;8.60;;;3.20;99.90;;;;;;5035684;28;20239;-45
2023/01/28 00:28:16;;;;;;;12.90;9.20;;;3.10;99.90;;;;;;5035904;28;20209;-46
2023/01/28 00:30:42;;;;;;;11.47;8.67;;;3.10;99.90;;;;;;5035861;28;20272;-44
2023/01/28 00:33:07;;;;;;;14.17;9.87;;;3.10;99.90;;;;;;5017772;28;20212;-45
2023/01/28 00:35:33;;;;;;;13.37;9.10;;;3.10;99.90;;;;;;5017817;28;20189;-44
2023/01/28 00:37:59;;;;;;;12.03;8.97;;;3.10;99.90;;;;;;5035569;28;20193;-44
2023/01/28 00:40:25;;;;;;;12.47;9.30;;;3.10;99.90;;;;;;5035726;28;20173;-46
2023/01/28 00:42:50;;;;;;;16.83;8.90;;;3.10;99.90;;;;;;5017529;28;20619;-45
2023/01/28 00:45:16;;;;;;;19.07;10.97;;;3.10;99.90;;;;;;5035943;28;20185;-43
2023/01/28 00:47:43;;;;;;;13.57;9.43;;;3.10;99.90;;;;;;5017644;28;20185;-45
2023/01/28 00:50:10;;;;;;;14.87;10.60;;;3.10;99.90;;;;;;5035358;28;20177;-44
2023/01/28 00:52:35;;;;;;;14.37;10.20;;;3.10;99.90;;;;;;5035141;28;20331;-44
2023/01/28 00:55:01;;;;;;;18.73;9.43;;;3.00;99.90;;;;;;5035226;28;20208;-44
2023/01/28 00:57:27;;;;;;;14.13;9.43;;;3.10;99.90;;;;;;5017621;28;20633;-45
2023/01/28 00:59:52;;;;;;;14.10;9.57;;;3.00;99.90;;;;;;5035552;28;20254;-45
2023/01/28 01:02:18;;;;;;;15.47;10.73;;;3.00;99.90;;;;;;5034783;28;20583;-44
2023/01/28 01:04:53;;;;;;;16.27;9.63;;;3.00;99.90;;;;;;5035009;28;20259;-44
2023/01/28 01:07:20;;;;;;;14.67;10.47;;;3.00;99.90;;;;;;5035384;28;20165;-49
2023/01/28 01:09:46;;;;;;;14.00;9.90;;;3.00;99.90;;;;;;5034678;28;20185;-48
2023/01/28 01:12:12;;;;;;;13.87;9.47;;;3.00;99.90;;;;;;5016937;28;20561;-49
2023/01/28 01:14:37;;;;;;;16.40;10.47;;;3.00;99.90;;;;;;5035085;28;20177;-49
2023/01/28 01:17:03;;;;;;;14.47;10.13;;;3.00;99.90;;;;;;5034699;28;20542;-49
2023/01/28 01:19:29;;;;;;;14.90;10.40;;;3.00;99.90;;;;;;5016901;28;20188;-50
2023/01/28 01:21:56;;;;;;;12.57;9.60;;;2.90;99.90;;;;;;5035527;28;20215;-48
2023/01/28 01:24:21;;;;;;;12.67;9.67;;;2.90;99.90;;;;;;5017333;28;20197;-50
2023/01/28 01:26:47;;;;;;;11.43;8.17;;;2.90;99.90;;;;;;5035231;28;20236;-49
2023/01/28 01:29:12;;;;;;;15.43;9.53;;;2.90;99.90;;;;;;5017096;28;20181;-50
2023/01/28 01:31:38;;;;;;;13.87;9.10;;;2.90;99.90;;;;;;5017087;28;20173;-50
2023/01/28 01:34:04;;;;;;;11.90;8.87;;;2.90;99.90;;;;;;5034421;28;20177;-50
2023/01/28 01:36:30;;;;;;;12.70;9.17;;;2.90;99.90;;;;;;5016683;28;20233;-49
2023/01/28 01:38:56;;;;;;;15.43;10.53;;;2.90;99.90;;;;;;5034357;28;20185;-50
2023/01/28 01:41:30;;;;;;;16.97;11.60;;;2.90;99.90;;;;;;5034322;28;20177;-50
2023/01/28 01:44:00;;;;;;;14.87;10.43;;;2.90;99.90;;;;;;5017890;28;20554;-49
2023/01/28 01:46:44;;;;;;;16.70;11.33;;;2.90;99.90;;;;;;5016384;28;20195;-51
2023/01/28 01:49:24;;;;;;;16.97;10.27;;;2.80;99.90;;;;;;5016706;28;20256;-50
2023/01/28 01:51:55;;;;;;;17.10;11.40;;;2.90;99.90;;;;;;5035034;28;20168;-48
2023/01/28 01:54:24;;;;;;;20.23;12.53;;;2.90;99.90;;;;;;5034001;28;20184;-49
2023/01/28 01:56:51;;;;;;;15.93;11.30;;;2.80;99.90;;;;;;5034362;28;20180;-50
2023/01/28 01:59:25;;;;;;;17.67;11.60;;;2.80;99.90;;;;;;5016090;28;20184;-49
2023/01/28 02:01:51;;;;;;;15.83;11.47;;;2.90;99.90;;;;;;5034618;28;20581;-49
2023/01/28 02:04:30;;;;;;;15.10;11.13;;;2.80;99.90;;;;;;5034063;28;20212;-48
2023/01/28 02:06:58;;;;;;;16.33;11.67;;;2.80;99.90;;;;;;5016163;28;20184;-50
2023/01/28 02:09:26;;;;;;;16.67;10.77;;;2.80;99.90;;;;;;5033974;28;20177;-49
2023/01/28 02:11:58;;;;;;;18.13;12.03;;;2.80;99.90;;;;;;5033668;28;20183;-50
2023/01/28 02:14:27;;;;;;;15.73;11.03;;;2.80;99.90;;;;;;5034001;28;20526;-48
2023/01/28 02:16:53;;;;;;;14.53;11.43;;;2.80;99.90;;;;;;5033827;28;20185;-49
2023/01/28 02:19:23;;;;;;;16.07;11.67;;;2.70;99.90;;;;;;5033689;28;20179;-50
2023/01/28 02:22:03;;;;;;;17.03;11.93;;;2.70;99.90;;;;;;5032988;28;20181;-49
2023/01/28 02:24:53;;;;;;;17.30;12.90;;;2.70;99.90;;;;;;5033782;28;20234;-50
2023/01/28 02:27:33;;;;;;;18.27;12.77;;;2.70;99.90;;;;;;5033880;28;20157;-50
2023/01/28 02:30:14;;;;;;;16.20;12.50;;;2.70;99.90;;;;;;5034057;28;20177;-49
2023/01/28 02:32:49;;;;;;;17.37;12.80;;;2.70;99.90;;;;;;5033555;28;20204;-50
2023/01/28 02:35:40;;;;;;;17.33;12.27;;;2.70;99.90;;;;;;5016208;28;20195;-50
2023/01/28 02:38:14;;;;;;;18.67;12.83;;;2.70;99.90;;;;;;5015686;28;20173;-50
2023/01/28 02:41:05;;;;;;;16.97;11.27;;;2.60;99.90;;;;;;5033649;28;20268;-51
2023/01/28 02:43:44;;;;;;;17.60;12.87;;;2.70;99.90;;;;;;5019006;28;20222;-50
2023/01/28 02:49:13;;;;;;;19.57;12.93;;;2.60;99.90;;;;;;5033808;28;20209;-48
2023/01/28 02:52:05;;;;;;;18.93;12.63;;;2.60;99.90;;;;;;5033388;28;20169;-50
2023/01/28 02:54:38;;;;;;;22.43;13.77;;;2.60;99.90;;;;;;5033545;28;20166;-49
2023/01/28 02:57:17;;;;;;;18.43;12.20;;;2.60;99.90;;;;;;5033194;28;20212;-48
2023/01/28 02:59:48;;;;;;;18.17;13.03;;;2.60;99.90;;;;;;5033312;28;20630;-50
2023/01/28 03:02:49;;;;;;;17.90;13.17;;;2.50;99.90;;;;;;5033302;28;20211;-50
2023/01/28 03:05:19;;;;;;;18.43;13.50;;;2.50;99.90;;;;;;5032993;28;20184;-50
2023/01/28 03:07:46;;;;;;;19.00;13.70;;;2.50;99.90;;;;;;5033127;28;20161;-50
2023/01/28 03:10:15;;;;;;;19.43;14.80;;;2.50;99.90;;;;;;5015874;28;20585;-48
2023/01/28 03:38:47;;;;;;;25.03;15.77;;;2.40;99.90;;;;;;5022319;28;20667;-50
2023/01/28 03:41:23;;;;;;;20.93;14.50;;;2.30;99.90;;;;;;5036684;28;20180;-50
2023/01/28 03:43:49;;;;;;;20.07;14.97;;;2.30;99.90;;;;;;5018969;28;20576;-50
2023/01/28 03:46:15;;;;;;;23.43;14.20;;;2.30;99.90;;;;;;5036830;28;20533;-51
2023/01/28 03:48:40;;;;;;;22.50;15.17;;;2.30;99.90;;;;;;5036497;28;20176;-50
2023/01/28 03:51:06;;;;;;;19.70;14.80;;;2.30;99.90;;;;;;5018621;28;20584;-48
2023/01/28 03:53:32;;;;;;;19.67;14.63;;;2.30;99.90;;;;;;5036457;28;20203;-50
2023/01/28 03:55:57;;;;;;;22.67;15.60;;;2.20;99.90;;;;;;5036350;28;20235;-47
2023/01/28 03:58:45;;;;;;;22.47;15.93;;;2.20;99.90;;;;;;5036298;28;20264;-49
2023/01/28 04:01:12;;;;;;;20.67;14.27;;;2.30;99.90;;;;;;5036658;28;20197;-49
2023/01/28 04:03:38;;;;;;;21.00;14.70;;;2.30;99.90;;;;;;5036122;28;20661;-50
2023/01/28 04:06:06;;;;;;;20.10;13.53;;;2.20;99.90;;;;;;5018426;28;20175;-50
2023/01/28 04:08:32;;;;;;;16.63;11.73;;;2.20;99.90;;;;;;5036351;28;20196;-49
2023/01/28 04:11:14;;;;;;;15.63;11.43;;;2.10;99.90;;;;;;5018305;28;20751;-50
2023/01/28 04:13:40;;;;;;;13.40;10.33;;;2.20;99.90;;;;;;5018185;28;20640;-49
2023/01/28 04:16:07;;;;;;;15.27;11.50;;;2.20;99.90;;;;;;5036104;28;20211;-48
2023/01/28 04:18:33;;;;;;;16.50;11.77;;;2.10;99.90;;;;;;5035764;28;20181;-49
2023/01/28 04:20:59;;;;;;;13.70;8.93;;;2.10;99.90;;;;;;5035837;28;20268;-49
2023/01/28 04:23:24;;;;;;;15.50;10.33;;;2.10;99.90;;;;;;5035771;28;20347;-49
2023/01/28 04:25:50;;;;;;;14.93;10.33;;;2.10;99.90;;;;;;5035694;28;20177;-50
2023/01/28 04:28:16;;;;;;;14.93;11.30;;;2.10;99.90;;;;;;5036022;28;20677;-50
2023/01/28 04:30:42;;;;;;;15.17;10.23;;;2.00;99.90;;;;;;5035660;28;20185;-50
2023/01/28 04:33:08;;;;;;;13.73;10.43;;;2.00;99.90;;;;;;5035733;28;20197;-49
2023/01/28 04:35:33;;;;;;;13.47;10.70;;;2.00;99.90;;;;;;5035629;28;20188;-48
2023/01/28 04:37:59;;;;;;;13.93;11.77;;;2.00;99.90;;;;;;5035585;28;20684;-49
2023/01/28 04:40:24;;;;;;;18.30;12.47;;;2.00;99.90;;;;;;5035763;28;20727;-49
2023/01/28 04:42:54;;;;;;;16.43;12.03;;;2.00;99.90;;;;;;5035301;28;20212;-50
2023/01/28 04:45:20;;;;;;;17.40;11.20;;;2.00;99.90;;;;;;5034866;28;20256;-49
2023/01/28 04:47:46;;;;;;;16.80;12.90;;;2.00;99.90;;;;;;5035543;28;20263;-49
2023/01/28 04:50:11;;;;;;;16.80;13.20;;;1.90;99.90;;;;;;5035622;28;20185;-49
2023/01/28 04:52:37;;;;;;;17.60;12.50;;;1.90;99.90;;;;;;5017823;28;20202;-49
2023/01/28 04:55:03;;;;;;;17.23;13.07;;;1.90;99.90;;;;;;5035459;28;20188;-49
2023/01/28 04:57:28;;;;;;;17.33;12.60;;;1.90;99.90;;;;;;5035170;28;20211;-50
2023/01/28 04:59:54;;;;;;;15.67;12.53;;;1.90;99.90;;;;;;5035069;28;20204;-51
2023/01/28 05:02:19;;;;;;;18.77;13.63;;;1.90;99.90;;;;;;5034975;28;20255;-49
2023/01/28 05:04:45;;;;;;;20.37;13.93;;;1.90;99.90;;;;;;5035270;28;20242;-50
2023/01/28 05:07:11;;;;;;;16.93;12.40;;;1.90;99.90;;;;;;5035249;28;20491;-49
2023/01/28 05:09:36;;;;;;;18.47;12.47;;;1.90;99.90;;;;;;5034860;28;20177;-50
2023/01/28 05:12:02;;;;;;;16.83;13.43;;;1.80;99.90;;;;;;5034736;28;20742;-50
2023/01/28 05:14:28;;;;;;;16.93;13.07;;;1.90;99.90;;;;;;5034991;28;20537;-50
2023/01/28 05:16:53;;;;;;;19.90;13.90;;;1.80;99.90;;;;;;5017011;28;20185;-51
2023/01/28 05:19:19;;;;;;;18.10;13.10;;;1.90;99.90;;;;;;5035211;28;20173;-49
2023/01/28 05:21:44;;;;;;;21.10;13.67;;;1.80;99.90;;;;;;5016908;28;20621;-51
2023/01/28 05:24:10;;;;;;;18.80;12.97;;;1.90;99.90;;;;;;5016778;28;20213;-50
2023/01/28 05:26:36;;;;;;;18.27;12.90;;;1.80;99.90;;;;;;5035112;28;20727;-49
2023/01/28 05:29:02;;;;;;;23.53;13.83;;;1.80;99.90;;;;;;5034510;28;20463;-49
2023/01/28 05:31:28;;;;;;;22.47;13.20;;;1.80;99.90;;;;;;5034526;28;20173;-50
2023/01/28 05:33:53;;;;;;;20.73;13.60;;;1.80;99.90;;;;;;5035124;28;20205;-50
2023/01/28 05:36:19;;;;;;;18.37;13.03;;;1.80;99.90;;;;;;5034692;28;20211;-49
2023/01/28 05:38:45;;;;;;;18.10;12.60;;;1.80;99.90;;;;;;5016970;28;20180;-48
2023/01/28 05:41:10;;;;;;;17.90;13.40;;;1.80;99.90;;;;;;5034420;28;20687;-50
2023/01/28 05:43:36;;;;;;;23.33;13.23;;;1.80;99.90;;;;;;5016405;28;20220;-50
2023/01/28 05:46:01;;;;;;;21.70;15.30;;;1.80;99.90;;;;;;5016869;28;20267;-50
2023/01/28 05:48:27;;;;;;;21.43;14.30;;;1.80;99.90;;;;;;5034430;28;20173;-48
2023/01/28 05:50:52;;;;;;;23.03;14.70;;;1.70;99.90;;;;;;5034077;28;20536;-49
2023/01/28 05:53:18;;;;;;;19.30;12.80;;;1.80;99.90;;;;;;5016334;28;20209;-45
2023/01/28 05:55:47;;;;;;;18.63;12.47;;;1.80;99.90;;;;;;5033689;28;20213;-45
2023/01/28 05:58:13;;;;;;;18.30;13.00;;;1.80;99.90;;;;;;5033639;28;20191;-43
2023/01/28 06:00:38;;;;;;;19.07;13.03;;;1.80;99.90;;;;;;5034329;28;20301;-45
2023/01/28 06:03:04;;;;;;;19.53;12.63;;;1.80;99.90;;;;;;5033838;28;20201;-41
2023/01/28 06:05:29;;;;;;;18.53;13.37;;;1.80;99.90;;;;;;5034294;28;20180;-43
2023/01/28 06:07:55;;;;;;;21.13;13.67;;;1.70;99.90;;;;;;5034310;28;20246;-44
2023/01/28 06:10:21;;;;;;;25.43;14.77;;;1.70;99.90;;;;;;5033748;28;20256;-43
2023/01/28 06:12:46;;;;;;;21.97;14.67;;;1.80;99.90;;;;;;5033836;28;20200;-44
2023/01/28 06:15:12;;;;;;;24.60;13.47;;;1.80;99.90;;;;;;5033970;28;20594;-45
2023/01/28 06:17:37;;;;;;;19.80;13.63;;;1.70;99.90;;;;;;5033651;28;20177;-42
2023/01/28 06:20:03;;;;;;;16.50;12.00;;;1.70;99.90;;;;;;5034054;28;20169;-43
2023/01/28 06:22:29;;;;;;;19.10;13.50;;;1.70;99.90;;;;;;5033494;28;20212;-44
2023/01/28 06:24:55;;;;;;;20.17;13.20;;;1.70;99.90;;;;;;5033702;28;20256;-43
2023/01/28 06:27:20;;;;;;;17.40;12.23;;;1.70;99.90;;;;;;5015992;28;20653;-43
2023/01/28 06:29:46;;;;;;;19.93;12.43;;;1.70;99.90;;;;;;5033556;28;20196;-44
2023/01/28 06:32:11;;;;;;;22.70;12.90;;;1.70;99.90;;;;;;5033427;28;20204;-46
2023/01/28 06:34:37;;;;;;;21.57;13.97;;;1.70;99.90;;;;;;5015688;28;20533;-42
2023/01/28 06:37:03;;;;;;;21.17;14.33;;;1.70;99.90;;;;;;5033757;28;20181;-42
2023/01/28 06:39:32;;;;;;;20.63;13.83;;;1.60;99.90;;;;;;5033361;28;20188;-44
2023/01/28 06:41:57;;;;;;;19.13;13.73;;;1.70;99.90;;;;;;5033329;28;20189;-43
2023/01/28 06:44:23;;;;;;;19.00;12.93;;;1.60;99.90;;;;;;5033337;28;20211;-44
2023/01/28 06:46:49;;;;;;;17.60;13.00;;;1.60;99.90;;;;;;5033313;28;20730;-44
2023/01/28 06:49:14;;;;;;;18.27;13.03;;;1.60;99.90;;;;;;5033429;28;20173;-45
2023/01/28 06:51:40;;;;;;;21.63;14.47;;;1.60;99.90;;;;;;5033506;28;20590;-42
2023/01/28 06:54:05;;;;;;;20.77;15.03;;;1.60;99.90;;;;;;5033446;28;20328;-50
2023/01/28 06:56:31;;;;;;;20.93;14.67;;;1.60;99.90;;;;;;5033238;28;20543;-49
2023/01/28 06:58:57;;;;;;;21.23;14.90;;;1.50;99.90;;;;;;5033797;28;20591;-49
2023/01/28 07:01:22;;;;;;;19.43;14.63;;;1.60;99.90;;;;;;5015409;28;20216;-48
2023/01/28 07:03:48;;;;;;;20.50;14.60;;;1.60;99.90;;;;;;5033272;28;20220;-49
2023/01/28 07:06:13;;;;;;;18.60;14.30;;;1.60;99.90;;;;;;5033117;28;20181;-50
2023/01/28 07:08:40;;;;;;;20.10;13.97;;;1.50;99.90;;;;;;5035771;28;20170;-51
2023/01/28 07:11:06;;;;;;;22.67;15.63;;;1.50;99.90;;;;;;5037214;28;20194;-50
2023/01/28 07:13:32;;;;;;;18.40;13.53;;;1.50;99.90;;;;;;5037138;28;20196;-50
2023/01/28 07:15:57;;;;;;;19.93;14.00;;;1.50;99.90;;;;;;5036981;28;20182;-49
2023/01/28 07:18:23;;;;;;;21.03;15.20;;;1.50;99.90;;;;;;5037082;28;20663;-49
2023/01/28 07:20:48;;;;;;;20.07;13.07;;;1.50;99.90;;;;;;5019715;28;20235;-49
2023/01/28 07:23:14;;;;;;;19.40;13.73;;;1.50;99.90;;;;;;5036726;28;20205;-49
2023/01/28 07:25:39;;;;;;;18.37;14.00;;;1.50;99.90;;;;;;5037428;28;20169;-50
2023/01/28 07:28:05;;;;;;;20.57;15.30;;;1.50;99.90;;;;;;5019179;28;20184;-49
2023/01/28 07:30:31;;;;;;;20.70;14.87;;;1.50;99.90;;;;;;5036752;28;20177;-49
2023/01/28 07:32:58;;;;;;;21.80;15.70;;;1.50;99.90;;;;;;5019058;28;20416;-50
2023/01/28 07:35:24;;;;;;;23.13;16.13;;;1.50;99.90;;;;;;5019532;28;20194;-49
2023/01/28 07:37:55;;;;;;;21.17;14.30;;;1.50;99.90;;;;;;5019427;28;20187;-49
2023/01/28 07:40:21;;;;;;;22.33;15.30;;;1.50;99.90;;;;;;5036840;28;20536;-50
2023/01/28 07:42:47;;;;;;;18.87;14.23;;;1.50;99.90;;;;;;5036904;28;20215;-49
2023/01/28 07:45:13;;;;;;;21.97;13.87;;;1.50;99.90;;;;;;5019040;28;20725;-49
2023/01/28 07:47:39;;;;;;;21.53;15.33;;;1.40;99.90;;;;;;5036914;28;20188;-50
2023/01/28 07:50:05;;;;;;;21.63;15.00;;;1.50;99.90;;;;;;5018695;28;20541;-49
2023/01/28 07:52:36;;;;;;;25.93;16.60;;;1.50;99.90;;;;;;5036587;28;20197;-47
2023/01/28 07:55:02;;;;;;;25.43;17.50;;;1.40;99.90;;;;;;5036316;28;20536;-50
2023/01/28 07:57:29;;;;;;;23.17;17.07;;;1.50;99.90;;;;;;5036519;28;20192;-48
2023/01/28 07:59:54;;;;;;;24.07;17.07;;;1.50;99.90;;;;;;5036382;28;20204;-48
2023/01/28 08:02:20;;;;;;;23.03;17.33;;;1.50;99.90;;;;;;5036218;28;20734;-48
2023/01/28 08:04:46;;;;;;;24.77;16.07;;;1.50;99.90;;;;;;5036661;28;20271;-48
2023/01/28 08:07:12;;;;;;;23.07;17.10;;;1.50;99.90;;;;;;5036229;28;20183;-48
2023/01/28 08:09:37;;;;;;;25.33;17.50;;;1.50;99.90;;;;;;5036038;28;20217;-49
2023/01/28 08:12:03;;;;;;;23.50;17.73;;;1.50;99.90;;;;;;5036382;28;20205;-50
2023/01/28 08:14:29;;;;;;;25.60;17.37;;;1.40;99.90;;;;;;5036068;28;20213;-47
2023/01/28 08:16:54;;;;;;;26.23;18.50;;;1.50;99.90;;;;;;5036434;28;20525;-48
2023/01/28 08:19:20;;;;;;;27.30;17.43;;;1.50;99.90;;;;;;5035252;28;20181;-50
2023/01/28 08:21:49;;;;;;;23.20;17.67;;;1.50;99.90;;;;;;5018183;28;20200;-47
2023/01/28 08:24:16;;;;;;;23.07;16.23;;;1.50;99.90;;;;;;5035758;28;20544;-48
2023/01/28 08:26:42;;;;;;;21.87;17.03;;;1.50;99.90;;;;;;5035953;28;20222;-50
2023/01/28 08:29:08;;;;;;;26.03;18.43;;;1.50;99.90;;;;;;5036055;28;20184;-49
2023/01/28 08:31:33;;;;;;;21.67;16.77;;;1.50;99.90;;;;;;5035603;28;20260;-48
2023/01/28 08:33:59;;;;;;;26.27;18.00;;;1.50;99.90;;;;;;5035930;28;20204;-49
2023/01/28 08:36:25;;;;;;;25.10;16.87;;;1.50;99.90;;;;;;5017943;28;20208;-49
2023/01/28 08:38:53;;;;;;;25.60;17.03;;;1.50;99.90;;;;;;5017822;28;20187;-48
2023/01/28 08:41:20;;;;;;;23.60;16.17;;;1.50;99.90;;;;;;5035814;28;20208;-49
2023/01/28 08:43:46;;;;;;;24.73;18.67;;;1.50;99.90;;;;;;5017447;28;20618;-49
2023/01/28 08:46:12;;;;;;;27.77;19.10;;;1.50;99.90;;;;;;5017648;28;20256;-50
2023/01/28 08:48:37;;;;;;;22.23;16.90;;;1.50;99.90;;;;;;5017788;28;20340;-48
2023/01/28 08:51:03;;;;;;;23.30;16.63;;;1.50;99.90;;;;;;5035391;28;20173;-49
2023/01/28 08:53:29;;;;;;;25.07;16.03;;;1.50;99.90;;;;;;5035183;28;20680;-49
2023/01/28 08:55:54;;;;;;;27.73;16.73;;;1.50;99.90;;;;;;5017482;28;20181;-48
2023/01/28 08:58:20;;;;;;;27.07;19.17;;;1.50;99.90;;;;;;5017508;28;20275;-50
2023/01/28 09:00:47;;;;;;;23.70;16.87;;;1.50;99.90;;;;;;5017372;28;20206;-49
2023/01/28 09:03:12;;;;;;;25.73;17.70;;;1.50;99.90;;;;;;5035035;28;20215;-50
2023/01/28 09:05:38;;;;;;;29.10;20.23;;;1.50;99.90;;;;;;5035671;28;20177;-49
2023/01/28 09:08:06;;;;;;;30.27;20.13;;;1.50;99.90;;;;;;5017362;28;20246;-50
2023/01/28 09:10:32;;;;;;;29.00;18.90;;;1.50;99.90;;;;;;5017179;28;20268;-51
2023/01/28 09:12:58;;;;;;;29.17;18.47;;;1.60;99.90;;;;;;5017097;28;20239;-50
2023/01/28 09:15:24;;;;;;;25.73;17.33;;;1.60;99.90;;;;;;5035121;28;20181;-49
2023/01/28 09:17:55;;;;;;;27.37;17.77;;;1.60;99.90;;;;;;5017340;28;20243;-51
2023/01/28 09:20:21;;;;;;;29.73;19.43;;;1.70;99.90;;;;;;5017123;28;20280;-49
2023/01/28 09:22:46;;;;;;;28.93;18.67;;;1.60;99.90;;;;;;5016779;28;20700;-49
2023/01/28 09:25:12;;;;;;;29.07;19.53;;;1.70;99.90;;;;;;5017185;28;20188;-49
2023/01/28 09:27:37;;;;;;;26.83;18.47;;;1.70;99.90;;;;;;5035074;28;20181;-48
2023/01/28 09:30:03;;;;;;;33.23;19.80;;;1.70;99.90;;;;;;5016795;28;20191;-49
2023/01/28 09:32:30;;;;;;;31.90;21.03;;;1.70;99.90;;;;;;5035304;28;20189;-51
2023/01/28 09:34:55;;;;;;;29.60;19.80;;;1.80;99.90;;;;;;5034921;28;20169;-50
2023/01/28 09:37:21;;;;;;;24.53;17.90;;;1.70;99.90;;;;;;5016844;28;20541;-51
2023/01/28 09:39:47;;;;;;;26.87;17.83;;;1.70;99.90;;;;;;5016880;28;20184;-48
2023/01/28 09:42:38;;;;;;;26.47;17.30;;;1.70;99.90;;;;;;5017099;28;20208;-49
2023/01/28 09:45:16;;;;;;;26.77;18.47;;;1.70;99.90;;;;;;5016734;28;20188;-50
2023/01/28 09:47:50;;;;;;;27.33;18.00;;;1.70;99.90;;;;;;5016769;28;20176;-49
2023/01/28 09:50:31;;;;;;;25.60;15.67;;;1.70;99.90;;;;;;5034323;28;20226;-48
2023/01/28 09:53:10;;;;;;;26.67;17.33;;;1.70;99.90;;;;;;5034827;28;20219;-48
2023/01/28 09:55:39;;;;;;;31.50;19.80;;;1.70;99.90;;;;;;5016698;28;20173;-46
2023/01/28 09:58:11;;;;;;;27.17;19.93;;;1.80;99.90;;;;;;5017350;28;20605;-45
2023/01/28 10:00:57;;;;;;;28.57;17.30;;;1.80;99.90;;;;;;5034275;28;20188;-43
2023/01/28 10:03:29;;;;;;;24.23;16.20;;;1.70;99.90;;;;;;5034431;28;20254;-45
2023/01/28 10:06:19;;;;;;;30.20;17.33;;;1.80;99.90;;;;;;5016459;28;20158;-45
2023/01/28 10:09:17;;;;;;;24.70;15.73;;;1.70;99.90;;;;;;5034474;28;20661;-43
2023/01/28 10:12:07;;;;;;;25.37;15.60;;;1.70;99.90;;;;;;5001538;28;20176;-45
2023/01/28 10:14:44;;;;;;;28.47;18.87;;;1.70;99.90;;;;;;5034191;28;20169;-49
2023/01/28 10:17:10;;;;;;;27.40;17.17;;;1.70;99.90;;;;;;5034125;28;20165;-50
2023/01/28 10:19:50;;;;;;;25.57;17.50;;;1.70;99.90;;;;;;5016270;28;20514;-49
2023/01/28 10:22:24;;;;;;;27.83;16.30;;;1.80;99.90;;;;;;5033621;28;20669;-49
2023/01/28 10:25:05;;;;;;;28.87;17.90;;;1.70;99.90;;;;;;5033662;28;20656;-50
2023/01/28 10:27:32;;;;;;;27.07;16.87;;;1.80;99.90;;;;;;5034067;28;20537;-47
2023/01/28 10:30:25;;;;;;;26.53;17.53;;;1.80;99.90;;;;;;5033885;28;20641;-49
2023/01/28 10:32:55;;;;;;;29.70;17.20;;;1.80;99.90;;;;;;5033525;28;20193;-50
2023/01/28 10:35:21;;;;;;;27.67;17.80;;;1.80;99.90;;;;;;5016425;28;20223;-48
2023/01/28 10:37:47;;;;;;;26.80;16.50;;;1.80;99.90;;;;;;4999483;28;20589;-50
2023/01/28 10:40:15;;;;;;;25.73;17.17;;;1.80;99.90;;;;;;5033687;28;20669;-49
2023/01/28 10:42:41;;;;;;;26.63;17.90;;;1.90;99.90;;;;;;5032928;28;20208;-48
2023/01/28 10:45:18;;;;;;;26.67;14.73;;;1.90;99.90;;;;;;5015648;28;20177;-50
2023/01/28 10:48:20;;;;;;;28.97;19.37;;;1.90;99.90;;;;;;5033401;28;20161;-48
2023/01/28 10:50:51;;;;;;;26.53;17.10;;;1.90;99.90;;;;;;5016325;28;20164;-49
2023/01/28 10:53:16;;;;;;;29.37;19.50;;;1.80;99.90;;;;;;5033429;28;20212;-49
2023/01/28 10:55:53;;;;;;;26.63;17.33;;;1.90;99.90;;;;;;5015618;28;20184;-49
2023/01/28 10:58:25;;;;;;;27.80;17.73;;;1.90;99.90;;;;;;5033658;28;20260;-50
2023/01/28 11:00:59;;;;;;;29.37;17.30;;;1.90;99.90;;;;;;5015416;28;20254;-49
2023/01/28 11:03:26;;;;;;;28.63;18.83;;;1.90;99.90;;;;;;5033152;28;20304;-49
2023/01/28 11:05:53;;;;;;;30.27;18.40;;;1.90;99.90;;;;;;5015504;28;20215;-51
2023/01/28 11:08:20;;;;;;;30.20;19.47;;;2.00;99.90;;;;;;5015459;28;20538;-49
2023/01/28 11:10:47;;;;;;;28.70;19.33;;;2.00;99.90;;;;;;5015463;28;20736;-49
2023/01/28 11:13:25;;;;;;;28.30;18.77;;;2.00;99.90;;;;;;5033242;28;20193;-47
2023/01/28 11:16:01;;;;;;;26.80;17.47;;;2.10;99.90;;;;;;5015361;28;20245;-49
2023/01/28 11:18:34;;;;;;;28.63;18.43;;;2.00;99.90;;;;;;5015428;28;20180;-49
2023/01/28 11:21:15;;;;;;;28.47;18.20;;;2.00;99.90;;;;;;5033076;28;20219;-51
2023/01/28 11:24:03;;;;;;;27.20;16.80;;;2.00;99.90;;;;;;5015172;28;20205;-50
2023/01/28 11:26:36;;;;;;;26.27;17.60;;;2.00;99.90;;;;;;5032965;28;20157;-49
2023/01/28 11:29:02;;;;;;;23.40;15.40;;;1.90;99.90;;;;;;5015266;28;20173;-50
2023/01/28 11:31:28;;;;;;;28.23;18.47;;;1.90;99.90;;;;;;5032926;28;20173;-49
2023/01/28 11:33:59;;;;;;;25.53;17.70;;;1.90;99.90;;;;;;5015140;28;20700;-48
2023/01/28 11:36:27;;;;;;;29.27;19.20;;;1.80;99.90;;;;;;5033187;28;20180;-49
2023/01/28 11:38:54;;;;;;;27.73;18.30;;;1.80;99.90;;;;;;5015180;28;20224;-50
2023/01/28 11:41:30;;;;;;;25.60;15.33;;;1.80;99.90;;;;;;5015169;28;20177;-50
2023/01/28 11:43:58;;;;;;;29.50;18.60;;;1.90;99.90;;;;;;5015098;28;20258;-49
2023/01/28 11:46:56;;;;;;;28.20;16.33;;;1.80;99.90;;;;;;5032759;28;20177;-48
2023/01/28 11:49:45;;;;;;;25.73;17.27;;;1.80;99.90;;;;;;5033768;28;20165;-48
2023/01/28 11:52:39;;;;;;;25.17;17.30;;;1.80;99.90;;;;;;5033232;28;20193;-49
2023/01/28 11:55:26;;;;;;;26.50;18.40;;;1.80;99.90;;;;;;5016572;28;20218;-48
2023/01/28 11:57:54;;;;;;;28.57;17.93;;;1.80;99.90;;;;;;5036948;28;20252;-50
2023/01/28 12:00:30;;;;;;;23.70;16.47;;;1.80;99.90;;;;;;5036217;28;20700;-48
2023/01/28 12:03:26;;;;;;;22.43;13.77;;;1.80;99.90;;;;;;5036086;28;20566;-50
2023/01/28 12:06:11;;;;;;;30.30;18.67;;;1.80;99.90;;;;;;5034951;28;20213;-48
2023/01/28 12:08:48;;;;;;;25.93;16.77;;;1.80;99.90;;;;;;5002291;28;20220;-47
2023/01/28 12:14:40;;;;;;;23.97;16.20;;;1.80;99.90;;;;;;5036037;28;20195;-49
2023/01/28 12:17:05;;;;;;;28.03;16.97;;;1.70;99.90;;;;;;5036261;28;20498;-50
2023/01/28 12:19:44;;;;;;;22.70;15.40;;;1.70;99.90;;;;;;5036205;28;20204;-49
2023/01/28 12:22:34;;;;;;;23.27;14.57;;;1.70;99.90;;;;;;5018083;28;20251;-49
2023/01/28 12:25:20;;;;;;;20.80;12.33;;;1.70;99.90;;;;;;5036286;28;20169;-49
2023/01/28 12:28:11;;;;;;;20.13;13.43;;;1.70;99.90;;;;;;5017241;28;20649;-49
2023/01/28 12:31:03;;;;;;;22.10;15.70;;;1.70;99.90;;;;;;5035942;28;20165;-49
2023/01/28 12:34:09;;;;;;;24.83;15.93;;;1.60;99.90;;;;;;5017763;28;20287;-49
2023/01/28 12:36:54;;;;;;;24.10;14.97;;;1.70;99.90;;;;;;5038852;28;20219;-49
2023/01/28 12:39:44;;;;;;;24.30;15.37;;;1.70;99.90;;;;;;5035597;28;20256;-48
2023/01/28 12:42:36;;;;;;;23.50;15.57;;;1.70;99.90;;;;;;5035926;28;20532;-49
2023/01/28 12:45:23;;;;;;;22.30;14.13;;;1.80;99.90;;;;;;5035494;28;20200;-49
2023/01/28 12:47:59;;;;;;;24.77;16.40;;;1.80;99.90;;;;;;5035476;28;20211;-50
2023/01/28 12:50:34;;;;;;;28.53;16.20;;;1.90;99.90;;;;;;5017538;28;20193;-48
2023/01/28 12:53:18;;;;;;;23.57;15.83;;;1.90;99.90;;;;;;5001916;28;20240;-49
2023/01/28 12:55:53;;;;;;;28.37;16.87;;;1.90;99.90;;;;;;5035200;28;20183;-48
2023/01/28 12:58:31;;;;;;;30.13;17.27;;;1.90;99.90;;;;;;5017284;28;20593;-50
2023/01/28 13:01:04;;;;;;;24.50;15.27;;;2.00;99.90;;;;;;5017331;28;20200;-49
2023/01/28 13:03:54;;;;;;;30.03;18.80;;;2.00;99.90;;;;;;5017117;28;20681;-49
2023/01/28 13:06:34;;;;;;;27.50;17.13;;;2.00;99.90;;;;;;5034928;28;20244;-49
2023/01/28 13:09:10;;;;;;;27.77;17.93;;;2.00;99.90;;;;;;5035127;28;20207;-48
2023/01/28 13:11:37;;;;;;;26.07;17.50;;;2.00;99.90;;;;;;5017361;28;20184;-49
2023/01/28 13:14:03;;;;;;;32.43;18.83;;;2.10;99.90;;;;;;5035086;28;20668;-49
2023/01/28 13:16:29;;;;;;;31.27;19.90;;;2.10;99.90;;;;;;5034810;28;20177;-50
2023/01/28 13:19:08;;;;;;;28.67;19.47;;;2.10;99.90;;;;;;5035025;28;20180;-49
2023/01/28 13:21:35;;;;;;;30.33;19.10;;;2.30;99.90;;;;;;5016963;28;20181;-50
2023/01/28 13:24:01;;;;;;;27.67;18.93;;;2.40;99.90;;;;;;5017130;28;20201;-49
2023/01/28 13:26:47;;;;;;;31.87;20.30;;;2.50;99.90;;;;;;5016788;28;20695;-49